Rolla, Missouri
Current Conditions -  °F | °C
As of 6:53 AM on Tuesday 21 Oct 2014 (Local Time) from KVIH Reporting Station
Clear Clear  
Wind Chill: 46°   Ceiling: Unl
Heat Index: 46°   Visibility: 10mi
Dew Point: 42°   Wind: 3mph
Humidity: 86%   Direction: 230°SW
Pressure: 30.08"   Gusts: NA
Location:  37.95°N, 91.77°W
Report Text: KVIH 211153Z AUTO 23003KT 10SM CLR 08/06 A3008 RMK AO2 SLP185 T00780056 10100 20067 53007
Loading
Personal Weather Stations






























Interactive Weather Map
Tropical Storm Tracking
New forecast layout! Learn more

10-Day Weather Forecast

Advertisements
Track Severe Weather on mobile